Vers la page d'accueil de NAV CANADA Ouverture d'une nouvelle session Chercher sur le site AWWS Clause de non-reponsabilité To the equivalent English page Trucs et astuces FAQ Quoi de neuf sur le site Vers la section Prévisions et observations / NOTAM Vers le site web pour <<Déposer un plan de vol>> Publications et liens importants Mise à jour du profil d'usager Numéros de téléphone des FIC Mes données météo personnelles Données météo de route Données météo régionales Données météo locales Vers la section Prévisions et observations / NOTAM
Requête générée le 2021/09/16 à 16:40:55 UTC. L'information météorologique disponible à ce moment est affichée.

METAR/TAF

Si vous notez des différences entre le METAR/TAF codé et le METAR/TAF en langage clair, veuillez utiliser la version codée. Les bulletins LWIS ne sont pas décodés en langage clair.

OTTAWA/GATINEAU/QC    

METAR CYND 161600Z 16003KT 110V220 15SM FEW025 SCT220 21/15 A3027 RMK CU1CI2 SL 51 DENSITY ALT 600FT=
METAR
LIEU
CYND - OTTAWA/GATINEAU/QC
DATE - HEURE
16 SEPTEMBRE 2021 - 1600 UTC
VENT
160 VRAIS @ 3  NOEUDS
VARIATION
110 <-> 220  DEG
VISIBILITE
15 MILLES TERR.
PORTEE VISUELLE DE PISTE
METEO
NEBULOSITE
QUELQUES NUAGES (1/8 - 2/8) 2500  PI
NUAGES EPARS (3/8 - 4/8) 22000  PI
TEMP / PT DE ROSEE
21 C / 15 C
ALTIMETRE
30.27 PO HG
TEMPS RECENT
CISAILLEMENT

METAR CYND 161500Z VRB02KT 15SM SCT220 18/13 A3026 RMK CI3 SLP250 DENSITY ALT 3 FT=
METAR
LIEU
CYND - OTTAWA/GATINEAU/QC
DATE - HEURE
16 SEPTEMBRE 2021 - 1500 UTC
VENT
VRB @ 2  NOEUDS
VISIBILITE
15 MILLES TERR.
PORTEE VISUELLE DE PISTE
METEO
NEBULOSITE
NUAGES EPARS (3/8 - 4/8) 22000  PI
TEMP / PT DE ROSEE
18 C / 13 C
ALTIMETRE
30.26 PO HG
TEMPS RECENT
CISAILLEMENT

METAR CYND 161400Z 08003KT 040V130 15SM FEW003 SCT200 16/13 A3027 RMK SF1CI4 SF R SLP252=
METAR
LIEU
CYND - OTTAWA/GATINEAU/QC
DATE - HEURE
16 SEPTEMBRE 2021 - 1400 UTC
VENT
80 VRAIS @ 3  NOEUDS
VARIATION
40 <-> 130  DEG
VISIBILITE
15 MILLES TERR.
PORTEE VISUELLE DE PISTE
METEO
NEBULOSITE
QUELQUES NUAGES (1/8 - 2/8) 300  PI
NUAGES EPARS (3/8 - 4/8) 20000  PI
TEMP / PT DE ROSEE
16 C / 13 C
ALTIMETRE
30.27 PO HG
TEMPS RECENT
CISAILLEMENT

TAF CYND 161239Z 1613/1701 VRB03KT P6SM SCT003 BKN080 BKN240 PROB30 1613/1614 1SM BR BKN003 FM161700 12007KT P6SM FEW220 RMK NXT FCST BY 161800Z=
TAF
LIEU

CYND - OTTAWA/GATINEAU/QC
VALIDITE [UTC]
16 SEP - 1239 à
17 SEP - 0100
 
PERIODES
[UTC]
VENT
[DEGRES VRAIS]
VISIBILITE
[MILLES TERR.]
METEO
NEBULOSITE
[PIEDS AGL]
 
16 SEP - 1300 à
16 SEP - 1700
VARIABLE @ 3 NOEUDS
6+
---
300 EPARS
8000 FRAGMENTES
24000 FRAGMENTES
30% PROBABILITE
16 SEP - 1300 à
16 SEP - 1400
 
1
BRUME
300 FRAGMENTES
 
16 SEP - 1700 à
17 SEP - 0100
120 @ 7 NOEUDS
6+
---
22000 QUELQUES
REMARQUES
LA PREVISION SUIVANTE SERA EMISE POUR 1800 UTC LE 16


Votre heure Heure UTC
Données météorologiques fournies par Environnement Canada et NAV CANADA